createdAt,value
2018-05-23T00:01:20.955Z,82.10
2018-05-23T00:03:47.538Z,82.10
2018-05-23T00:06:14.130Z,81.70
2018-05-23T00:08:40.657Z,81.70
2018-05-23T00:11:07.994Z,82.00
2018-05-23T00:13:35.292Z,82.20
2018-05-23T00:16:01.949Z,82.20
2018-05-23T00:18:29.358Z,82.30
2018-05-23T00:20:55.979Z,82.30
2018-05-23T00:23:22.531Z,82.00
2018-05-23T00:25:49.866Z,82.10
2018-05-23T00:28:17.156Z,82.70
2018-05-23T00:30:43.931Z,82.60
2018-05-23T00:33:10.479Z,82.80
2018-05-23T00:35:37.069Z,83.00
2018-05-23T00:40:42.849Z,84.30
2018-05-23T00:43:09.281Z,84.10
2018-05-23T00:45:35.778Z,83.70
2018-05-23T00:48:02.372Z,85.50
2018-05-23T00:50:36.216Z,84.70
2018-05-23T00:53:11.665Z,84.70
2018-05-23T00:55:38.892Z,84.40
2018-05-23T00:58:05.307Z,84.40
2018-05-23T01:00:31.761Z,83.60
2018-05-23T01:02:58.273Z,85.20
2018-05-23T01:05:32.900Z,83.70
2018-05-23T01:07:59.435Z,83.80
2018-05-23T01:10:25.948Z,85.40
2018-05-23T01:12:53.156Z,85.80
2018-05-23T01:15:19.580Z,85.80
2018-05-23T01:17:46.879Z,85.80
2018-05-23T01:20:14.072Z,85.80
2018-05-23T01:22:40.559Z,85.80
2018-05-23T01:25:07.748Z,86.20
2018-05-23T01:27:34.284Z,86.20
2018-05-23T01:30:00.729Z,86.40
2018-05-23T01:32:27.156Z,86.80
2018-05-23T01:34:53.585Z,86.80
2018-05-23T01:37:20.044Z,86.90
2018-05-23T01:39:46.497Z,87.00
2018-05-23T01:42:13.982Z,87.10
2018-05-23T01:44:40.465Z,87.00
2018-05-23T01:47:06.939Z,87.00
2018-05-23T01:49:34.173Z,87.20
2018-05-23T01:52:00.626Z,87.20
2018-05-23T01:54:27.318Z,87.20
2018-05-23T01:56:53.834Z,86.80
2018-05-23T01:59:20.350Z,86.80
2018-05-23T02:01:46.843Z,86.50
2018-05-23T02:04:13.320Z,86.30
2018-05-23T02:06:40.531Z,86.20
2018-05-23T02:09:07.055Z,86.10
2018-05-23T02:11:33.568Z,86.00
2018-05-23T02:14:00.796Z,85.90
2018-05-23T02:16:27.325Z,85.80
2018-05-23T02:18:53.915Z,85.30
2018-05-23T02:21:20.390Z,85.90
2018-05-23T02:23:47.586Z,85.20
2018-05-23T02:26:14.034Z,85.20
2018-05-23T02:28:40.585Z,85.20
2018-05-23T02:31:07.029Z,85.10
2018-05-23T02:33:33.465Z,85.10
2018-05-23T02:35:59.916Z,85.00
2018-05-23T02:41:05.572Z,85.30
2018-05-23T02:43:32.135Z,85.50
2018-05-23T02:45:58.607Z,85.50
2018-05-23T02:48:25.109Z,85.80
2018-05-23T02:50:51.566Z,85.90
2018-05-23T02:53:18.039Z,86.10
2018-05-23T02:55:44.487Z,86.70
2018-05-23T02:58:10.892Z,86.70
2018-05-23T03:05:29.057Z,88.20
2018-05-23T03:07:55.699Z,88.10
2018-05-23T03:10:22.349Z,89.00
2018-05-23T03:12:48.922Z,89.40
2018-05-23T03:15:15.552Z,89.60
2018-05-23T03:17:42.111Z,90.00
2018-05-23T03:20:09.411Z,90.20
2018-05-23T03:22:35.960Z,90.10
2018-05-23T03:25:02.550Z,90.40
2018-05-23T03:27:29.077Z,90.30
2018-05-23T03:29:55.647Z,90.50
2018-05-23T03:32:22.163Z,90.70
2018-05-23T03:34:48.694Z,90.60
2018-05-23T03:37:15.210Z,90.90
2018-05-23T03:39:41.783Z,91.00
2018-05-23T03:42:08.311Z,91.20
2018-05-23T03:44:35.560Z,91.30
2018-05-23T03:47:02.077Z,91.30
2018-05-23T03:49:28.604Z,91.60
2018-05-23T03:51:55.113Z,91.50
2018-05-23T03:54:21.612Z,91.70
2018-05-23T03:56:48.862Z,92.00
2018-05-23T03:59:15.360Z,92.10
2018-05-23T04:02:05.755Z,92.00
2018-05-23T04:04:44.447Z,92.10
2018-05-23T04:07:23.670Z,92.00
2018-05-23T04:09:50.150Z,92.10
2018-05-23T04:12:16.674Z,92.30
2018-05-23T04:14:43.878Z,92.70
2018-05-23T04:17:10.335Z,92.30
2018-05-23T04:19:37.607Z,92.10
2018-05-23T04:22:04.092Z,92.10
2018-05-23T04:24:30.606Z,92.10
2018-05-23T04:26:57.087Z,92.20
2018-05-23T04:29:23.503Z,92.30
2018-05-23T04:31:51.016Z,92.40
2018-05-23T04:34:17.482Z,92.10
2018-05-23T04:37:11.807Z,92.40
2018-05-23T04:39:38.267Z,92.30
2018-05-23T04:42:04.774Z,92.20
2018-05-23T04:44:31.302Z,92.00
2018-05-23T04:46:58.047Z,92.10
2018-05-23T04:49:24.490Z,92.10
2018-05-23T04:51:51.629Z,92.10
2018-05-23T04:54:18.110Z,92.10
2018-05-23T04:56:44.539Z,92.20
2018-05-23T04:59:11.021Z,92.10
2018-05-23T05:01:37.493Z,92.30
2018-05-23T05:04:03.999Z,92.10
2018-05-23T05:06:30.510Z,92.10
2018-05-23T05:08:57.052Z,91.70
2018-05-23T05:11:24.513Z,92.10
2018-05-23T05:13:51.033Z,92.10
2018-05-23T05:16:18.227Z,92.00
2018-05-23T05:18:44.684Z,92.00
2018-05-23T05:21:11.221Z,91.50
2018-05-23T05:23:37.655Z,91.80
2018-05-23T05:26:04.127Z,91.90
2018-05-23T05:28:30.568Z,91.80
2018-05-23T05:30:57.079Z,92.10
2018-05-23T05:33:24.266Z,92.00
2018-05-23T05:35:50.753Z,92.00
2018-05-23T05:38:17.962Z,92.20
2018-05-23T05:40:44.406Z,92.20
2018-05-23T05:43:11.839Z,92.10
2018-05-23T05:48:09.951Z,92.10
2018-05-23T05:50:38.255Z,91.90
2018-05-23T05:53:04.772Z,92.20
2018-05-23T05:55:31.300Z,91.60
2018-05-23T05:57:58.460Z,91.70
2018-05-23T06:00:25.593Z,92.00
2018-05-23T06:02:52.099Z,91.90
2018-05-23T06:05:18.546Z,91.30
2018-05-23T06:07:44.954Z,91.30
2018-05-23T06:10:11.421Z,92.00
2018-05-23T06:12:37.843Z,91.80
2018-05-23T06:15:04.326Z,91.80
2018-05-23T06:17:30.739Z,92.10
2018-05-23T06:19:57.194Z,91.90
2018-05-23T06:22:23.706Z,91.90
2018-05-23T06:24:50.037Z,92.50
2018-05-23T06:27:16.526Z,91.90
2018-05-23T06:29:42.997Z,92.20
2018-05-23T06:32:09.471Z,92.50
2018-05-23T06:34:35.941Z,91.90
2018-05-23T06:37:03.163Z,92.30
2018-05-23T06:39:30.380Z,92.50
2018-05-23T06:41:58.600Z,92.50
2018-05-23T06:44:25.040Z,92.50
2018-05-23T06:46:51.459Z,92.30
2018-05-23T06:49:17.952Z,92.40
2018-05-23T06:54:10.460Z,91.80
2018-05-23T06:56:36.961Z,91.80
2018-05-23T06:59:03.390Z,91.70
2018-05-23T07:01:29.976Z,92.00
2018-05-23T07:03:56.602Z,91.70
2018-05-23T07:10:25.353Z,91.70
2018-05-23T07:12:51.953Z,91.90
2018-05-23T07:15:34.170Z,91.80
2018-05-23T07:18:00.791Z,91.70
2018-05-23T07:20:50.757Z,91.70
2018-05-23T07:23:18.077Z,91.70
2018-05-23T07:26:15.920Z,91.70
2018-05-23T07:28:42.452Z,91.80
2018-05-23T07:31:08.975Z,91.70
2018-05-23T07:33:35.526Z,91.80
2018-05-23T07:36:19.697Z,91.90
2018-05-23T07:38:46.273Z,91.80
2018-05-23T07:41:14.515Z,91.80
2018-05-23T07:43:41.047Z,91.80
2018-05-23T07:46:07.605Z,91.90
2018-05-23T07:48:34.141Z,91.90
2018-05-23T07:51:00.661Z,92.30
2018-05-23T07:53:27.171Z,92.10
2018-05-23T07:55:53.686Z,92.30
2018-05-23T07:58:20.230Z,92.30
2018-05-23T08:03:12.908Z,92.20
2018-05-23T08:05:39.398Z,92.20
2018-05-23T08:08:05.839Z,91.90
2018-05-23T08:10:32.328Z,92.10
2018-05-23T08:12:58.746Z,92.30
2018-05-23T08:15:25.206Z,92.50
2018-05-23T08:17:51.636Z,92.40
2018-05-23T08:20:18.819Z,92.30
2018-05-23T08:22:45.263Z,91.90
2018-05-23T08:25:11.674Z,91.70
2018-05-23T08:27:38.081Z,91.50
2018-05-23T08:30:04.524Z,90.60
2018-05-23T08:32:30.947Z,90.30
2018-05-23T08:34:58.158Z,90.50
2018-05-23T08:37:24.613Z,90.50
2018-05-23T08:39:51.028Z,90.40
2018-05-23T08:42:17.435Z,90.30
2018-05-23T08:44:43.975Z,89.90
2018-05-23T08:47:10.590Z,90.10
2018-05-23T08:49:37.071Z,90.30
2018-05-23T08:52:03.508Z,90.30
2018-05-23T08:54:30.315Z,90.50
2018-05-23T08:57:33.317Z,90.80
2018-05-23T08:59:59.895Z,90.90
2018-05-23T09:02:26.415Z,90.70
2018-05-23T09:04:53.631Z,90.70
2018-05-23T09:07:20.082Z,90.70
2018-05-23T09:09:46.529Z,90.80
2018-05-23T09:12:13.100Z,91.00
2018-05-23T09:14:39.527Z,91.10
2018-05-23T09:17:06.706Z,91.00
2018-05-23T09:19:33.172Z,91.00
2018-05-23T09:21:59.603Z,90.20
2018-05-23T09:24:26.835Z,88.30
2018-05-23T09:26:53.274Z,88.30
2018-05-23T09:29:19.707Z,89.60
2018-05-23T09:31:46.156Z,87.00
2018-05-23T09:34:12.620Z,85.20
2018-05-23T09:36:39.789Z,84.70
2018-05-23T09:39:06.297Z,84.70
2018-05-23T09:41:32.740Z,84.10
2018-05-23T09:43:59.905Z,85.80
2018-05-23T09:46:26.363Z,85.70
2018-05-23T09:48:52.833Z,84.90
2018-05-23T09:51:19.293Z,83.80
2018-05-23T09:53:45.745Z,84.30
2018-05-23T09:56:13.191Z,84.60
2018-05-23T09:58:40.362Z,84.00
2018-05-23T10:01:06.815Z,84.70
2018-05-23T10:03:33.240Z,84.40
2018-05-23T10:05:59.738Z,82.90
2018-05-23T10:08:26.190Z,83.70
2018-05-23T10:10:53.408Z,83.60
2018-05-23T10:13:19.812Z,83.50
2018-05-23T10:15:46.214Z,84.70
2018-05-23T10:18:13.399Z,82.30
2018-05-23T10:20:39.862Z,82.10
2018-05-23T10:23:06.271Z,82.20
2018-05-23T10:25:32.748Z,80.20
2018-05-23T10:27:59.129Z,80.20
2018-05-23T10:30:25.599Z,79.00
2018-05-23T10:32:52.017Z,77.90
2018-05-23T10:35:18.453Z,77.50
2018-05-23T10:37:44.902Z,72.90
2018-05-23T10:40:11.335Z,74.80
2018-05-23T10:42:38.598Z,74.80
2018-05-23T10:45:05.789Z,75.30
2018-05-23T10:47:32.300Z,75.10
2018-05-23T10:49:58.768Z,75.00
2018-05-23T10:52:25.173Z,75.50
2018-05-23T10:54:52.349Z,73.40
2018-05-23T10:57:18.808Z,73.40
2018-05-23T10:59:45.243Z,73.10
2018-05-23T11:02:11.714Z,73.80
2018-05-23T11:04:38.190Z,74.00
2018-05-23T11:07:04.676Z,74.40
2018-05-23T11:09:31.478Z,75.00
2018-05-23T11:11:59.799Z,77.10
2018-05-23T11:14:26.267Z,77.00
2018-05-23T11:16:52.761Z,76.90
2018-05-23T11:19:19.272Z,75.20
2018-05-23T11:21:45.896Z,74.50
2018-05-23T11:24:13.127Z,69.30
2018-05-23T11:26:39.608Z,69.20
2018-05-23T11:29:06.091Z,68.10
2018-05-23T11:31:32.612Z,65.40
2018-05-23T11:33:59.066Z,68.60
2018-05-23T11:36:25.513Z,66.70
2018-05-23T11:38:51.998Z,68.90
2018-05-23T11:41:18.477Z,69.40
2018-05-23T11:43:45.654Z,71.20
2018-05-23T11:46:12.129Z,71.20
2018-05-23T11:48:38.688Z,69.30
2018-05-23T11:51:05.203Z,69.90
2018-05-23T11:53:31.663Z,67.90
2018-05-23T11:55:58.144Z,69.30
2018-05-23T11:58:24.654Z,67.50
2018-05-23T12:00:51.880Z,67.10
2018-05-23T12:03:19.083Z,67.90
2018-05-23T12:05:45.714Z,68.00
2018-05-23T12:08:12.163Z,69.70
2018-05-23T12:10:38.825Z,70.10
2018-05-23T12:13:05.432Z,69.70
2018-05-23T12:15:32.044Z,70.20
2018-05-23T12:17:59.326Z,70.00
2018-05-23T12:20:25.845Z,70.10
2018-05-23T12:22:52.348Z,70.90
2018-05-23T12:25:19.900Z,71.00
2018-05-23T12:27:46.433Z,71.50
2018-05-23T12:30:12.861Z,71.60
2018-05-23T12:32:39.415Z,70.20
2018-05-23T12:37:31.409Z,69.30
2018-05-23T12:39:59.085Z,68.70
2018-05-23T12:42:25.657Z,69.10
2018-05-23T12:44:52.199Z,69.00
2018-05-23T12:47:18.717Z,69.20
2018-05-23T12:49:45.258Z,66.60
2018-05-23T12:52:13.688Z,66.60
2018-05-23T12:54:40.270Z,62.80
2018-05-23T12:57:06.774Z,62.20
2018-05-23T12:59:34.072Z,60.70
2018-05-23T13:02:00.614Z,60.60
2018-05-23T13:04:28.007Z,60.70
2018-05-23T13:06:54.615Z,60.80
2018-05-23T13:09:21.119Z,61.60
2018-05-23T13:11:48.446Z,60.40
2018-05-23T13:14:15.004Z,60.40
2018-05-23T13:16:41.539Z,62.30
2018-05-23T13:19:08.083Z,61.50
2018-05-23T13:21:34.599Z,61.10
2018-05-23T13:24:01.189Z,60.70
2018-05-23T13:26:28.458Z,60.90
2018-05-23T13:28:55.045Z,60.90
2018-05-23T13:31:21.577Z,62.00
2018-05-23T13:33:48.120Z,62.60
2018-05-23T13:36:14.658Z,62.00
2018-05-23T13:38:41.193Z,60.80
2018-05-23T13:41:07.775Z,60.60
2018-05-23T13:43:34.334Z,58.40
2018-05-23T13:46:01.564Z,59.20
2018-05-23T13:48:28.036Z,59.20
2018-05-23T13:50:54.531Z,59.00
2018-05-23T13:53:22.783Z,57.20
2018-05-23T13:55:49.379Z,57.10
2018-05-23T13:58:16.181Z,57.60
2018-05-23T14:01:03.831Z,58.80
2018-05-23T14:03:30.369Z,58.60
2018-05-23T14:05:56.822Z,58.60
2018-05-23T14:08:23.375Z,59.10
2018-05-23T14:10:49.846Z,57.50
2018-05-23T14:13:16.335Z,58.10
2018-05-23T14:15:42.839Z,57.10
2018-05-23T14:18:09.377Z,58.80
2018-05-23T14:20:35.863Z,59.60
2018-05-23T14:23:02.402Z,61.00
2018-05-23T14:25:29.628Z,64.50
2018-05-23T14:27:56.112Z,64.50
2018-05-23T14:30:22.622Z,65.50
2018-05-23T14:32:49.883Z,67.20
2018-05-23T14:35:16.542Z,67.10
2018-05-23T14:37:43.154Z,67.00
2018-05-23T14:40:13.437Z,66.80
2018-05-23T14:42:41.850Z,64.90
2018-05-23T14:45:09.252Z,57.90
2018-05-23T14:47:35.749Z,57.80
2018-05-23T14:50:03.172Z,61.30
2018-05-23T14:52:29.664Z,61.40
2018-05-23T14:54:56.273Z,63.00
2018-05-23T14:57:23.520Z,58.90
2018-05-23T14:59:50.889Z,58.00
2018-05-23T15:02:17.380Z,58.00
2018-05-23T15:04:43.930Z,58.50
2018-05-23T15:07:10.477Z,58.10
2018-05-23T15:09:37.091Z,58.00
2018-05-23T15:12:03.720Z,56.90
2018-05-23T15:14:31.107Z,56.40
2018-05-23T15:16:57.647Z,56.40
2018-05-23T15:19:24.958Z,60.20
2018-05-23T15:21:51.492Z,60.20
2018-05-23T15:24:18.070Z,57.70
2018-05-23T15:26:44.598Z,57.90
2018-05-23T15:29:11.945Z,56.70
2018-05-23T15:31:38.467Z,56.70
2018-05-23T15:34:06.064Z,55.40
2018-05-23T15:36:32.636Z,55.00
2018-05-23T15:38:59.232Z,55.50
2018-05-23T15:41:25.786Z,55.30
2018-05-23T15:43:53.401Z,56.40
2018-05-23T15:46:19.899Z,56.80
2018-05-23T15:48:47.498Z,55.70
2018-05-23T15:53:47.989Z,55.60
2018-05-23T15:56:16.589Z,55.60
2018-05-23T15:58:43.084Z,57.10
2018-05-23T16:01:11.267Z,55.60
2018-05-23T16:03:38.607Z,55.60
2018-05-23T16:06:07.405Z,55.40
2018-05-23T16:08:33.919Z,55.30
2018-05-23T16:11:01.158Z,56.10
2018-05-23T16:13:27.606Z,56.00
2018-05-23T16:15:54.875Z,58.50
2018-05-23T16:18:22.055Z,58.30
2018-05-23T16:20:48.532Z,58.30
2018-05-23T16:23:15.188Z,58.40
2018-05-23T16:25:41.675Z,58.00
2018-05-23T16:28:08.227Z,57.80
2018-05-23T16:30:34.690Z,56.70
2018-05-23T16:33:01.337Z,57.10
2018-05-23T16:35:27.924Z,57.50
2018-05-23T16:37:54.475Z,57.70
2018-05-23T16:40:20.865Z,58.00
2018-05-23T16:42:47.342Z,58.20
2018-05-23T16:45:13.770Z,58.40
2018-05-23T16:47:40.426Z,58.00
2018-05-23T16:50:07.621Z,57.00
2018-05-23T16:52:34.073Z,56.90
2018-05-23T16:55:00.638Z,55.10
2018-05-23T16:57:27.072Z,54.10
2018-05-23T16:59:53.677Z,53.80
2018-05-23T17:02:20.101Z,55.30
2018-05-23T17:04:46.747Z,55.50
2018-05-23T17:07:13.218Z,55.30
2018-05-23T17:12:05.919Z,54.10
2018-05-23T17:14:32.383Z,54.00
2018-05-23T17:17:00.841Z,51.80
2018-05-23T17:19:27.277Z,53.30
2018-05-23T17:21:54.876Z,53.40
2018-05-23T17:24:22.055Z,54.60
2018-05-23T17:26:48.659Z,54.60
2018-05-23T17:29:15.125Z,55.90
2018-05-23T17:31:42.292Z,56.10
2018-05-23T17:34:09.236Z,56.00
2018-05-23T17:36:35.889Z,55.90
2018-05-23T17:39:02.373Z,56.80
2018-05-23T17:41:29.588Z,57.60
2018-05-23T17:43:56.088Z,57.50
2018-05-23T17:46:23.232Z,58.20
2018-05-23T17:48:49.659Z,58.20
2018-05-23T17:51:16.105Z,58.80
2018-05-23T17:53:42.559Z,59.00
2018-05-23T17:56:09.020Z,59.10
2018-05-23T17:58:35.471Z,58.80
2018-05-23T18:01:01.931Z,59.60
2018-05-23T18:03:28.355Z,59.10
2018-05-23T18:05:55.609Z,59.50
2018-05-23T18:08:21.972Z,59.50
2018-05-23T18:10:48.404Z,59.90
2018-05-23T18:13:14.836Z,59.50
2018-05-23T18:15:41.315Z,60.10
2018-05-23T18:18:07.790Z,60.60
2018-05-23T18:20:34.465Z,61.10
2018-05-23T18:23:00.920Z,64.00
2018-05-23T18:25:27.383Z,66.10
2018-05-23T18:27:54.641Z,70.10
2018-05-23T18:30:21.849Z,70.00
2018-05-23T18:32:48.261Z,70.00
2018-05-23T18:35:14.743Z,70.10
2018-05-23T18:37:41.995Z,72.10
2018-05-23T18:40:08.516Z,72.10
2018-05-23T18:42:35.776Z,77.20
2018-05-23T18:45:02.231Z,77.10
2018-05-23T18:47:28.875Z,77.80
2018-05-23T18:49:56.031Z,79.80
2018-05-23T18:52:31.326Z,79.80
2018-05-23T18:54:57.792Z,80.30
2018-05-23T18:57:25.046Z,82.70
2018-05-23T18:59:51.626Z,82.50
2018-05-23T19:02:22.045Z,80.50
2018-05-23T19:04:48.502Z,81.70
2018-05-23T19:07:14.979Z,83.20
2018-05-23T19:09:41.474Z,82.90
2018-05-23T19:12:08.078Z,85.50
2018-05-23T19:14:34.554Z,84.30
2018-05-23T19:17:01.101Z,82.30
2018-05-23T19:19:27.714Z,82.80
2018-05-23T19:21:54.952Z,84.70
2018-05-23T19:24:21.417Z,84.70
2018-05-23T19:26:47.841Z,84.30
2018-05-23T19:29:14.318Z,85.60
2018-05-23T19:31:41.509Z,88.70
2018-05-23T19:34:08.115Z,88.60
2018-05-23T19:36:34.868Z,89.40
2018-05-23T19:39:01.334Z,90.20
2018-05-23T19:41:27.757Z,90.30
2018-05-23T19:43:54.196Z,90.10
2018-05-23T19:46:20.635Z,89.40
2018-05-23T19:48:47.984Z,90.60
2018-05-23T19:51:14.389Z,90.60
2018-05-23T19:53:40.850Z,90.20
2018-05-23T19:58:54.055Z,89.50
2018-05-23T20:01:20.525Z,89.60
2018-05-23T20:03:56.207Z,90.80
2018-05-23T20:06:22.640Z,88.70
2018-05-23T20:08:51.951Z,89.80
2018-05-23T20:11:19.135Z,88.20
2018-05-23T20:13:45.690Z,88.20
2018-05-23T20:16:12.085Z,89.20
2018-05-23T20:18:39.777Z,90.10
2018-05-23T20:21:06.519Z,90.10
2018-05-23T20:23:32.977Z,90.30
2018-05-23T20:26:00.181Z,88.70
2018-05-23T20:28:26.613Z,88.80
2018-05-23T20:30:53.036Z,89.70
2018-05-23T20:33:20.217Z,90.70
2018-05-23T20:35:46.624Z,90.70
2018-05-23T20:38:13.038Z,88.90
2018-05-23T20:40:39.472Z,90.10
2018-05-23T20:43:05.882Z,90.50
2018-05-23T20:45:32.326Z,90.70
2018-05-23T20:47:58.798Z,90.30
2018-05-23T20:50:25.255Z,90.20
2018-05-23T20:52:51.971Z,90.70
2018-05-23T20:55:18.362Z,90.80
2018-05-23T20:57:44.751Z,90.40
2018-05-23T21:00:23.289Z,90.20
2018-05-23T21:02:50.326Z,90.20
2018-05-23T21:05:26.750Z,90.80
2018-05-23T21:07:53.180Z,90.90
2018-05-23T21:10:19.644Z,90.10
2018-05-23T21:12:46.079Z,90.50
2018-05-23T21:15:12.598Z,89.50
2018-05-23T21:17:39.011Z,90.80
2018-05-23T21:20:05.435Z,90.60
2018-05-23T21:22:31.869Z,90.30
2018-05-23T21:24:58.383Z,90.60
2018-05-23T21:27:24.797Z,90.40
2018-05-23T21:29:51.952Z,90.90
2018-05-23T21:32:19.114Z,90.50
2018-05-23T21:34:45.523Z,90.50
2018-05-23T21:37:12.705Z,90.30
2018-05-23T21:39:39.079Z,90.30
2018-05-23T21:42:06.284Z,90.20
2018-05-23T21:44:32.695Z,90.20
2018-05-23T21:46:59.872Z,90.10
2018-05-23T21:49:26.321Z,90.10
2018-05-23T21:51:52.756Z,90.30
2018-05-23T21:54:19.184Z,89.40
2018-05-23T21:56:45.628Z,89.50
2018-05-23T21:59:12.087Z,89.40
2018-05-23T22:01:38.483Z,89.50
2018-05-23T22:04:04.886Z,90.00
2018-05-23T22:06:31.322Z,89.00
2018-05-23T22:08:57.754Z,87.50
2018-05-23T22:11:24.123Z,86.40
2018-05-23T22:13:53.832Z,81.90
2018-05-23T22:18:45.712Z,78.00
2018-05-23T22:21:12.123Z,77.90
2018-05-23T22:23:38.604Z,80.10
2018-05-23T22:26:05.104Z,82.20
2018-05-23T22:28:31.610Z,84.40
2018-05-23T22:30:58.043Z,85.80
2018-05-23T22:33:24.494Z,85.80
2018-05-23T22:35:50.927Z,85.80
2018-05-23T22:38:17.321Z,86.00
2018-05-23T22:40:44.504Z,86.50
2018-05-23T22:43:10.960Z,85.70
2018-05-23T22:45:37.382Z,86.70
2018-05-23T22:48:03.823Z,86.80
2018-05-23T22:50:30.256Z,85.80
2018-05-23T22:52:56.692Z,84.10
2018-05-23T22:55:23.110Z,79.20
2018-05-23T22:57:49.501Z,76.00
2018-05-23T23:00:20.700Z,73.30
2018-05-23T23:02:47.130Z,73.30
2018-05-23T23:05:14.338Z,79.50
2018-05-23T23:07:40.759Z,79.60
2018-05-23T23:10:07.927Z,81.60
2018-05-23T23:12:34.358Z,81.60
2018-05-23T23:15:00.783Z,82.10
2018-05-23T23:17:27.249Z,82.80
2018-05-23T23:20:11.303Z,83.40
2018-05-23T23:22:38.675Z,85.60
2018-05-23T23:25:05.992Z,85.60
2018-05-23T23:27:32.566Z,85.50
2018-05-23T23:29:59.850Z,86.00
2018-05-23T23:32:26.379Z,86.00
2018-05-23T23:34:52.936Z,86.90
2018-05-23T23:37:19.466Z,88.50
2018-05-23T23:39:46.037Z,88.40
2018-05-23T23:42:13.281Z,88.80
2018-05-23T23:44:39.867Z,88.60
2018-05-23T23:47:06.386Z,89.50
2018-05-23T23:49:47.933Z,89.10
2018-05-23T23:52:14.450Z,90.00
2018-05-23T23:54:41.034Z,88.80
2018-05-23T23:57:07.488Z,89.30
2018-05-23T23:59:34.076Z,90.30
